sensor_id;sensor_type;location;lat;lon;timestamp;P1;durP1;ratioP1;P2;durP2;ratioP2
32319;SDS011;19080;51.750;5.888;2023-04-06T00:00:49;11.55;;;6.90;;
32319;SDS011;19080;51.750;5.888;2023-04-06T00:03:16;10.63;;;6.95;;
32319;SDS011;19080;51.750;5.888;2023-04-06T00:05:43;11.23;;;6.60;;
32319;SDS011;19080;51.750;5.888;2023-04-06T00:08:09;8.98;;;6.38;;
32319;SDS011;19080;51.750;5.888;2023-04-06T00:10:36;10.48;;;6.72;;
32319;SDS011;19080;51.750;5.888;2023-04-06T00:13:03;10.30;;;7.07;;
32319;SDS011;19080;51.750;5.888;2023-04-06T00:15:30;10.73;;;6.60;;
32319;SDS011;19080;51.750;5.888;2023-04-06T00:21:52;11.48;;;7.43;;
32319;SDS011;19080;51.750;5.888;2023-04-06T00:24:19;10.30;;;7.10;;
32319;SDS011;19080;51.750;5.888;2023-04-06T00:26:46;10.73;;;7.05;;
32319;SDS011;19080;51.750;5.888;2023-04-06T00:29:13;10.85;;;7.05;;
32319;SDS011;19080;51.750;5.888;2023-04-06T00:31:39;10.63;;;7.40;;
32319;SDS011;19080;51.750;5.888;2023-04-06T00:34:06;13.65;;;7.90;;
32319;SDS011;19080;51.750;5.888;2023-04-06T00:36:33;13.13;;;7.22;;
32319;SDS011;19080;51.750;5.888;2023-04-06T00:38:59;10.68;;;6.97;;
32319;SDS011;19080;51.750;5.888;2023-04-06T00:41:26;8.75;;;6.95;;
32319;SDS011;19080;51.750;5.888;2023-04-06T00:43:53;11.38;;;6.72;;
32319;SDS011;19080;51.750;5.888;2023-04-06T00:46:21;11.40;;;7.63;;
32319;SDS011;19080;51.750;5.888;2023-04-06T00:48:47;10.85;;;7.00;;
32319;SDS011;19080;51.750;5.888;2023-04-06T00:51:14;11.70;;;7.07;;
32319;SDS011;19080;51.750;5.888;2023-04-06T00:53:41;11.27;;;7.35;;
32319;SDS011;19080;51.750;5.888;2023-04-06T00:56:09;12.80;;;7.50;;
32319;SDS011;19080;51.750;5.888;2023-04-06T00:58:47;9.82;;;6.72;;
32319;SDS011;19080;51.750;5.888;2023-04-06T01:01:13;16.20;;;8.55;;
32319;SDS011;19080;51.750;5.888;2023-04-06T01:03:41;10.40;;;7.13;;
32319;SDS011;19080;51.750;5.888;2023-04-06T01:06:11;12.70;;;7.30;;
32319;SDS011;19080;51.750;5.888;2023-04-06T01:08:39;14.00;;;8.55;;
32319;SDS011;19080;51.750;5.888;2023-04-06T01:11:17;11.43;;;7.20;;
32319;SDS011;19080;51.750;5.888;2023-04-06T01:13:45;12.55;;;8.00;;
32319;SDS011;19080;51.750;5.888;2023-04-06T01:16:20;13.52;;;7.75;;
32319;SDS011;19080;51.750;5.888;2023-04-06T01:19:00;11.82;;;8.02;;
32319;SDS011;19080;51.750;5.888;2023-04-06T01:21:30;11.77;;;7.97;;
32319;SDS011;19080;51.750;5.888;2023-04-06T01:24:21;10.77;;;7.13;;
32319;SDS011;19080;51.750;5.888;2023-04-06T01:26:59;14.05;;;8.13;;
32319;SDS011;19080;51.750;5.888;2023-04-06T01:29:34;11.65;;;7.38;;
32319;SDS011;19080;51.750;5.888;2023-04-06T01:32:04;14.65;;;8.20;;
32319;SDS011;19080;51.750;5.888;2023-04-06T01:34:36;12.38;;;7.95;;
32319;SDS011;19080;51.750;5.888;2023-04-06T01:37:04;12.23;;;8.05;;
32319;SDS011;19080;51.750;5.888;2023-04-06T01:39:31;11.25;;;7.68;;
32319;SDS011;19080;51.750;5.888;2023-04-06T01:42:00;11.27;;;7.25;;
32319;SDS011;19080;51.750;5.888;2023-04-06T01:44:28;10.25;;;7.60;;
32319;SDS011;19080;51.750;5.888;2023-04-06T01:47:06;10.52;;;7.85;;
32319;SDS011;19080;51.750;5.888;2023-04-06T01:49:32;12.18;;;8.38;;
32319;SDS011;19080;51.750;5.888;2023-04-06T01:52:00;12.73;;;8.55;;
32319;SDS011;19080;51.750;5.888;2023-04-06T01:54:27;13.82;;;8.52;;
32319;SDS011;19080;51.750;5.888;2023-04-06T01:57:12;12.25;;;7.72;;
32319;SDS011;19080;51.750;5.888;2023-04-06T01:59:46;13.50;;;8.80;;
32319;SDS011;19080;51.750;5.888;2023-04-06T02:02:38;13.10;;;8.65;;
32319;SDS011;19080;51.750;5.888;2023-04-06T02:05:12;12.52;;;9.02;;
32319;SDS011;19080;51.750;5.888;2023-04-06T02:07:39;16.00;;;9.77;;
32319;SDS011;19080;51.750;5.888;2023-04-06T02:10:12;11.70;;;8.75;;
32319;SDS011;19080;51.750;5.888;2023-04-06T02:12:43;14.48;;;9.38;;
32319;SDS011;19080;51.750;5.888;2023-04-06T02:15:14;15.88;;;9.27;;
32319;SDS011;19080;51.750;5.888;2023-04-06T02:17:41;13.30;;;8.85;;
32319;SDS011;19080;51.750;5.888;2023-04-06T02:20:09;13.68;;;8.68;;
32319;SDS011;19080;51.750;5.888;2023-04-06T02:22:35;16.35;;;8.85;;
32319;SDS011;19080;51.750;5.888;2023-04-06T02:25:02;19.70;;;9.35;;
32319;SDS011;19080;51.750;5.888;2023-04-06T02:27:29;16.65;;;10.23;;
32319;SDS011;19080;51.750;5.888;2023-04-06T02:29:57;15.85;;;10.23;;
32319;SDS011;19080;51.750;5.888;2023-04-06T02:32:24;12.48;;;9.43;;
32319;SDS011;19080;51.750;5.888;2023-04-06T02:34:51;14.32;;;9.80;;
32319;SDS011;19080;51.750;5.888;2023-04-06T02:37:20;13.25;;;9.23;;
32319;SDS011;19080;51.750;5.888;2023-04-06T02:39:46;15.68;;;10.18;;
32319;SDS011;19080;51.750;5.888;2023-04-06T02:42:13;15.95;;;9.20;;
32319;SDS011;19080;51.750;5.888;2023-04-06T02:44:43;14.60;;;9.27;;
32319;SDS011;19080;51.750;5.888;2023-04-06T02:47:10;15.68;;;9.95;;
32319;SDS011;19080;51.750;5.888;2023-04-06T02:49:39;15.85;;;9.93;;
32319;SDS011;19080;51.750;5.888;2023-04-06T02:52:06;14.98;;;9.93;;
32319;SDS011;19080;51.750;5.888;2023-04-06T02:54:35;16.40;;;9.85;;
32319;SDS011;19080;51.750;5.888;2023-04-06T02:57:02;15.55;;;9.25;;
32319;SDS011;19080;51.750;5.888;2023-04-06T02:59:36;13.70;;;9.02;;
32319;SDS011;19080;51.750;5.888;2023-04-06T03:02:23;17.67;;;9.98;;
32319;SDS011;19080;51.750;5.888;2023-04-06T03:05:01;17.38;;;10.02;;
32319;SDS011;19080;51.750;5.888;2023-04-06T03:07:34;12.70;;;9.15;;
32319;SDS011;19080;51.750;5.888;2023-04-06T03:10:01;15.70;;;9.40;;
32319;SDS011;19080;51.750;5.888;2023-04-06T03:12:30;18.02;;;10.05;;
32319;SDS011;19080;51.750;5.888;2023-04-06T03:15:15;17.23;;;9.77;;
32319;SDS011;19080;51.750;5.888;2023-04-06T03:17:46;13.93;;;9.47;;
32319;SDS011;19080;51.750;5.888;2023-04-06T03:20:29;19.02;;;10.32;;
32319;SDS011;19080;51.750;5.888;2023-04-06T03:22:55;15.55;;;10.25;;
32319;SDS011;19080;51.750;5.888;2023-04-06T03:25:26;17.88;;;10.18;;
32319;SDS011;19080;51.750;5.888;2023-04-06T03:27:58;16.80;;;10.93;;
32319;SDS011;19080;51.750;5.888;2023-04-06T03:30:25;16.05;;;10.52;;
32319;SDS011;19080;51.750;5.888;2023-04-06T03:32:52;21.63;;;10.60;;
32319;SDS011;19080;51.750;5.888;2023-04-06T03:35:21;18.00;;;10.85;;
32319;SDS011;19080;51.750;5.888;2023-04-06T03:37:49;16.73;;;10.75;;
32319;SDS011;19080;51.750;5.888;2023-04-06T03:40:16;17.88;;;11.13;;
32319;SDS011;19080;51.750;5.888;2023-04-06T03:42:42;19.55;;;11.13;;
32319;SDS011;19080;51.750;5.888;2023-04-06T03:45:13;18.33;;;11.27;;
32319;SDS011;19080;51.750;5.888;2023-04-06T03:47:45;16.95;;;11.05;;
32319;SDS011;19080;51.750;5.888;2023-04-06T03:50:12;17.95;;;10.57;;
32319;SDS011;19080;51.750;5.888;2023-04-06T03:52:39;18.80;;;11.23;;
32319;SDS011;19080;51.750;5.888;2023-04-06T03:55:06;16.73;;;11.38;;
32319;SDS011;19080;51.750;5.888;2023-04-06T03:57:35;20.20;;;11.07;;
32319;SDS011;19080;51.750;5.888;2023-04-06T04:00:02;18.20;;;11.68;;
32319;SDS011;19080;51.750;5.888;2023-04-06T04:02:37;19.67;;;11.52;;
32319;SDS011;19080;51.750;5.888;2023-04-06T04:05:05;19.08;;;11.32;;
32319;SDS011;19080;51.750;5.888;2023-04-06T04:07:32;17.45;;;10.93;;
32319;SDS011;19080;51.750;5.888;2023-04-06T04:09:59;20.40;;;12.93;;
32319;SDS011;19080;51.750;5.888;2023-04-06T04:12:26;17.25;;;12.20;;
32319;SDS011;19080;51.750;5.888;2023-04-06T04:14:53;18.45;;;10.98;;
32319;SDS011;19080;51.750;5.888;2023-04-06T04:17:21;20.65;;;12.88;;
32319;SDS011;19080;51.750;5.888;2023-04-06T04:19:48;22.10;;;12.98;;
32319;SDS011;19080;51.750;5.888;2023-04-06T04:22:15;21.92;;;12.18;;
32319;SDS011;19080;51.750;5.888;2023-04-06T04:24:42;24.42;;;12.40;;
32319;SDS011;19080;51.750;5.888;2023-04-06T04:27:09;21.55;;;12.05;;
32319;SDS011;19080;51.750;5.888;2023-04-06T04:29:37;21.25;;;12.00;;
32319;SDS011;19080;51.750;5.888;2023-04-06T04:32:07;20.77;;;13.77;;
32319;SDS011;19080;51.750;5.888;2023-04-06T04:34:34;20.02;;;13.07;;
32319;SDS011;19080;51.750;5.888;2023-04-06T04:37:04;21.25;;;13.07;;
32319;SDS011;19080;51.750;5.888;2023-04-06T04:39:46;18.88;;;12.13;;
32319;SDS011;19080;51.750;5.888;2023-04-06T04:42:13;23.80;;;13.18;;
32319;SDS011;19080;51.750;5.888;2023-04-06T04:44:45;23.45;;;13.75;;
32319;SDS011;19080;51.750;5.888;2023-04-06T04:47:16;20.48;;;12.70;;
32319;SDS011;19080;51.750;5.888;2023-04-06T04:49:45;18.17;;;12.57;;
32319;SDS011;19080;51.750;5.888;2023-04-06T04:52:17;18.08;;;12.30;;
32319;SDS011;19080;51.750;5.888;2023-04-06T04:54:55;18.88;;;12.23;;
32319;SDS011;19080;51.750;5.888;2023-04-06T04:57:26;19.48;;;12.95;;
32319;SDS011;19080;51.750;5.888;2023-04-06T04:59:53;19.17;;;12.80;;
32319;SDS011;19080;51.750;5.888;2023-04-06T05:02:22;19.48;;;12.63;;
32319;SDS011;19080;51.750;5.888;2023-04-06T05:05:15;18.67;;;11.95;;
32319;SDS011;19080;51.750;5.888;2023-04-06T05:07:42;19.65;;;12.38;;
32319;SDS011;19080;51.750;5.888;2023-04-06T05:10:17;17.40;;;12.55;;
32319;SDS011;19080;51.750;5.888;2023-04-06T05:12:57;20.95;;;12.57;;
32319;SDS011;19080;51.750;5.888;2023-04-06T05:15:25;19.23;;;12.13;;
32319;SDS011;19080;51.750;5.888;2023-04-06T05:18:00;22.05;;;12.95;;
32319;SDS011;19080;51.750;5.888;2023-04-06T05:20:31;18.73;;;11.70;;
32319;SDS011;19080;51.750;5.888;2023-04-06T05:22:59;21.10;;;12.68;;
32319;SDS011;19080;51.750;5.888;2023-04-06T05:25:25;20.73;;;12.57;;
32319;SDS011;19080;51.750;5.888;2023-04-06T05:27:56;35.08;;;13.02;;
32319;SDS011;19080;51.750;5.888;2023-04-06T05:30:29;20.50;;;12.38;;
32319;SDS011;19080;51.750;5.888;2023-04-06T05:32:58;20.05;;;13.07;;
32319;SDS011;19080;51.750;5.888;2023-04-06T05:35:31;16.90;;;12.07;;
32319;SDS011;19080;51.750;5.888;2023-04-06T05:38:07;18.95;;;12.85;;
32319;SDS011;19080;51.750;5.888;2023-04-06T05:40:34;22.45;;;13.38;;
32319;SDS011;19080;51.750;5.888;2023-04-06T05:43:01;22.00;;;13.13;;
32319;SDS011;19080;51.750;5.888;2023-04-06T05:45:29;18.55;;;11.98;;
32319;SDS011;19080;51.750;5.888;2023-04-06T05:47:57;19.02;;;12.48;;
32319;SDS011;19080;51.750;5.888;2023-04-06T05:50:27;19.42;;;12.85;;
32319;SDS011;19080;51.750;5.888;2023-04-06T05:52:56;21.40;;;13.27;;
32319;SDS011;19080;51.750;5.888;2023-04-06T05:55:27;19.17;;;13.05;;
32319;SDS011;19080;51.750;5.888;2023-04-06T05:58:06;23.02;;;13.00;;
32319;SDS011;19080;51.750;5.888;2023-04-06T06:00:33;20.48;;;13.05;;
32319;SDS011;19080;51.750;5.888;2023-04-06T06:03:04;20.05;;;13.13;;
32319;SDS011;19080;51.750;5.888;2023-04-06T06:05:34;19.63;;;13.70;;
32319;SDS011;19080;51.750;5.888;2023-04-06T06:08:09;20.08;;;11.60;;
32319;SDS011;19080;51.750;5.888;2023-04-06T06:10:37;22.25;;;13.23;;
32319;SDS011;19080;51.750;5.888;2023-04-06T06:13:06;23.42;;;13.95;;
32319;SDS011;19080;51.750;5.888;2023-04-06T06:15:34;20.65;;;12.98;;
32319;SDS011;19080;51.750;5.888;2023-04-06T06:18:01;19.42;;;12.70;;
32319;SDS011;19080;51.750;5.888;2023-04-06T06:20:29;16.88;;;11.43;;
32319;SDS011;19080;51.750;5.888;2023-04-06T06:23:00;23.30;;;12.98;;
32319;SDS011;19080;51.750;5.888;2023-04-06T06:25:26;22.30;;;12.48;;
32319;SDS011;19080;51.750;5.888;2023-04-06T06:27:53;18.23;;;12.57;;
32319;SDS011;19080;51.750;5.888;2023-04-06T06:30:20;21.35;;;13.10;;
32319;SDS011;19080;51.750;5.888;2023-04-06T06:32:49;21.42;;;12.88;;
32319;SDS011;19080;51.750;5.888;2023-04-06T06:35:18;23.98;;;12.85;;
32319;SDS011;19080;51.750;5.888;2023-04-06T06:37:46;19.63;;;12.80;;
32319;SDS011;19080;51.750;5.888;2023-04-06T06:40:17;20.30;;;13.43;;
32319;SDS011;19080;51.750;5.888;2023-04-06T06:42:46;29.83;;;13.52;;
32319;SDS011;19080;51.750;5.888;2023-04-06T06:45:33;22.75;;;13.38;;
32319;SDS011;19080;51.750;5.888;2023-04-06T06:47:59;22.25;;;14.05;;
32319;SDS011;19080;51.750;5.888;2023-04-06T06:50:26;19.15;;;13.10;;
32319;SDS011;19080;51.750;5.888;2023-04-06T06:52:53;18.58;;;12.60;;
32319;SDS011;19080;51.750;5.888;2023-04-06T06:55:21;21.50;;;14.02;;
32319;SDS011;19080;51.750;5.888;2023-04-06T06:57:48;23.30;;;14.30;;
32319;SDS011;19080;51.750;5.888;2023-04-06T07:00:15;21.38;;;13.13;;
32319;SDS011;19080;51.750;5.888;2023-04-06T07:02:44;21.88;;;13.50;;
32319;SDS011;19080;51.750;5.888;2023-04-06T07:05:11;23.10;;;13.82;;
32319;SDS011;19080;51.750;5.888;2023-04-06T07:07:54;22.50;;;14.02;;
32319;SDS011;19080;51.750;5.888;2023-04-06T07:10:21;20.40;;;14.10;;
32319;SDS011;19080;51.750;5.888;2023-04-06T07:12:48;22.67;;;13.68;;
32319;SDS011;19080;51.750;5.888;2023-04-06T07:15:16;21.02;;;13.70;;
32319;SDS011;19080;51.750;5.888;2023-04-06T07:17:44;17.58;;;12.75;;
32319;SDS011;19080;51.750;5.888;2023-04-06T07:20:13;19.83;;;14.30;;
32319;SDS011;19080;51.750;5.888;2023-04-06T07:22:41;22.58;;;13.10;;
32319;SDS011;19080;51.750;5.888;2023-04-06T07:25:09;24.42;;;13.90;;
32319;SDS011;19080;51.750;5.888;2023-04-06T07:27:36;23.30;;;13.95;;
32319;SDS011;19080;51.750;5.888;2023-04-06T07:30:03;19.50;;;13.27;;
32319;SDS011;19080;51.750;5.888;2023-04-06T07:32:30;20.17;;;14.40;;
32319;SDS011;19080;51.750;5.888;2023-04-06T07:34:58;20.20;;;13.30;;
32319;SDS011;19080;51.750;5.888;2023-04-06T07:37:24;20.45;;;15.30;;
32319;SDS011;19080;51.750;5.888;2023-04-06T07:39:51;18.90;;;13.90;;
32319;SDS011;19080;51.750;5.888;2023-04-06T07:42:18;22.55;;;14.88;;
32319;SDS011;19080;51.750;5.888;2023-04-06T07:44:45;22.33;;;15.07;;
32319;SDS011;19080;51.750;5.888;2023-04-06T07:47:12;25.10;;;15.23;;
32319;SDS011;19080;51.750;5.888;2023-04-06T07:49:38;20.38;;;14.65;;
32319;SDS011;19080;51.750;5.888;2023-04-06T07:52:05;23.50;;;15.32;;
32319;SDS011;19080;51.750;5.888;2023-04-06T07:54:32;24.50;;;15.95;;
32319;SDS011;19080;51.750;5.888;2023-04-06T07:56:59;29.52;;;14.90;;
32319;SDS011;19080;51.750;5.888;2023-04-06T07:59:26;25.75;;;14.60;;
32319;SDS011;19080;51.750;5.888;2023-04-06T08:01:52;19.48;;;13.80;;
32319;SDS011;19080;51.750;5.888;2023-04-06T08:04:19;19.40;;;15.15;;
32319;SDS011;19080;51.750;5.888;2023-04-06T08:06:46;19.45;;;14.10;;
32319;SDS011;19080;51.750;5.888;2023-04-06T08:09:13;24.90;;;14.27;;
32319;SDS011;19080;51.750;5.888;2023-04-06T08:14:43;25.58;;;15.98;;
32319;SDS011;19080;51.750;5.888;2023-04-06T08:17:09;21.25;;;14.18;;
32319;SDS011;19080;51.750;5.888;2023-04-06T08:19:36;20.25;;;14.65;;
32319;SDS011;19080;51.750;5.888;2023-04-06T08:22:05;23.80;;;15.60;;
32319;SDS011;19080;51.750;5.888;2023-04-06T08:24:32;23.85;;;15.85;;
32319;SDS011;19080;51.750;5.888;2023-04-06T08:26:58;20.25;;;15.02;;
32319;SDS011;19080;51.750;5.888;2023-04-06T08:29:25;20.85;;;14.55;;
32319;SDS011;19080;51.750;5.888;2023-04-06T08:31:52;20.50;;;15.05;;
32319;SDS011;19080;51.750;5.888;2023-04-06T08:34:18;24.08;;;14.63;;
32319;SDS011;19080;51.750;5.888;2023-04-06T08:36:45;24.73;;;15.38;;
32319;SDS011;19080;51.750;5.888;2023-04-06T08:39:13;22.48;;;15.70;;
32319;SDS011;19080;51.750;5.888;2023-04-06T08:41:42;20.38;;;14.65;;
32319;SDS011;19080;51.750;5.888;2023-04-06T08:44:10;26.23;;;15.57;;
32319;SDS011;19080;51.750;5.888;2023-04-06T08:46:37;20.67;;;15.18;;
32319;SDS011;19080;51.750;5.888;2023-04-06T08:49:04;24.25;;;16.70;;
32319;SDS011;19080;51.750;5.888;2023-04-06T08:51:34;23.13;;;14.82;;
32319;SDS011;19080;51.750;5.888;2023-04-06T08:54:03;20.25;;;15.32;;
32319;SDS011;19080;51.750;5.888;2023-04-06T08:56:31;22.25;;;16.08;;
32319;SDS011;19080;51.750;5.888;2023-04-06T08:58:58;29.90;;;15.45;;
32319;SDS011;19080;51.750;5.888;2023-04-06T09:01:26;23.27;;;15.07;;
32319;SDS011;19080;51.750;5.888;2023-04-06T09:03:57;23.35;;;15.63;;
32319;SDS011;19080;51.750;5.888;2023-04-06T09:06:26;19.08;;;14.55;;
32319;SDS011;19080;51.750;5.888;2023-04-06T09:08:57;23.95;;;14.10;;
32319;SDS011;19080;51.750;5.888;2023-04-06T09:11:24;23.42;;;15.07;;
32319;SDS011;19080;51.750;5.888;2023-04-06T09:13:52;23.13;;;15.27;;
32319;SDS011;19080;51.750;5.888;2023-04-06T09:16:20;26.00;;;15.38;;
32319;SDS011;19080;51.750;5.888;2023-04-06T09:18:48;21.73;;;14.00;;
32319;SDS011;19080;51.750;5.888;2023-04-06T09:21:16;22.85;;;15.55;;
32319;SDS011;19080;51.750;5.888;2023-04-06T09:23:44;22.02;;;16.15;;
32319;SDS011;19080;51.750;5.888;2023-04-06T09:26:13;22.15;;;14.95;;
32319;SDS011;19080;51.750;5.888;2023-04-06T09:31:14;23.33;;;15.40;;
32319;SDS011;19080;51.750;5.888;2023-04-06T09:33:44;22.75;;;15.95;;
32319;SDS011;19080;51.750;5.888;2023-04-06T09:36:11;21.48;;;15.25;;
32319;SDS011;19080;51.750;5.888;2023-04-06T09:38:38;21.75;;;15.35;;
32319;SDS011;19080;51.750;5.888;2023-04-06T09:41:21;24.02;;;15.00;;
32319;SDS011;19080;51.750;5.888;2023-04-06T09:46:38;25.30;;;16.77;;
32319;SDS011;19080;51.750;5.888;2023-04-06T09:49:28;19.88;;;14.80;;
32319;SDS011;19080;51.750;5.888;2023-04-06T09:51:59;19.77;;;14.50;;
32319;SDS011;19080;51.750;5.888;2023-04-06T09:54:28;21.50;;;15.18;;
32319;SDS011;19080;51.750;5.888;2023-04-06T09:56:56;21.17;;;15.10;;
32319;SDS011;19080;51.750;5.888;2023-04-06T10:02:05;27.38;;;15.07;;
32319;SDS011;19080;51.750;5.888;2023-04-06T10:04:49;22.60;;;15.15;;
32319;SDS011;19080;51.750;5.888;2023-04-06T10:07:23;22.30;;;13.60;;
32319;SDS011;19080;51.750;5.888;2023-04-06T10:09:49;21.15;;;14.93;;
32319;SDS011;19080;51.750;5.888;2023-04-06T10:12:18;21.58;;;13.73;;
32319;SDS011;19080;51.750;5.888;2023-04-06T10:14:45;22.48;;;15.18;;
32319;SDS011;19080;51.750;5.888;2023-04-06T10:17:12;20.95;;;15.55;;
32319;SDS011;19080;51.750;5.888;2023-04-06T10:20:02;22.50;;;14.48;;
32319;SDS011;19080;51.750;5.888;2023-04-06T10:22:39;21.20;;;14.90;;
32319;SDS011;19080;51.750;5.888;2023-04-06T10:25:12;20.75;;;14.20;;
32319;SDS011;19080;51.750;5.888;2023-04-06T10:27:38;17.40;;;12.77;;
32319;SDS011;19080;51.750;5.888;2023-04-06T10:30:05;24.38;;;14.90;;
32319;SDS011;19080;51.750;5.888;2023-04-06T10:35:08;20.85;;;13.32;;
32319;SDS011;19080;51.750;5.888;2023-04-06T10:37:46;20.90;;;14.20;;
32319;SDS011;19080;51.750;5.888;2023-04-06T10:40:27;21.63;;;13.20;;
32319;SDS011;19080;51.750;5.888;2023-04-06T10:45:36;19.10;;;13.40;;
32319;SDS011;19080;51.750;5.888;2023-04-06T10:48:13;17.45;;;13.32;;
32319;SDS011;19080;51.750;5.888;2023-04-06T10:50:47;21.00;;;14.05;;
32319;SDS011;19080;51.750;5.888;2023-04-06T10:53:24;22.42;;;14.68;;
32319;SDS011;19080;51.750;5.888;2023-04-06T10:55:55;20.13;;;14.27;;
32319;SDS011;19080;51.750;5.888;2023-04-06T10:58:26;17.63;;;13.52;;
32319;SDS011;19080;51.750;5.888;2023-04-06T11:00:54;20.55;;;15.48;;
32319;SDS011;19080;51.750;5.888;2023-04-06T11:03:22;17.55;;;13.32;;
32319;SDS011;19080;51.750;5.888;2023-04-06T11:05:49;18.60;;;14.02;;
32319;SDS011;19080;51.750;5.888;2023-04-06T11:11:31;18.23;;;13.23;;
32319;SDS011;19080;51.750;5.888;2023-04-06T11:16:28;14.88;;;11.68;;
32319;SDS011;19080;51.750;5.888;2023-04-06T11:19:03;17.83;;;11.52;;
32319;SDS011;19080;51.750;5.888;2023-04-06T11:21:35;15.73;;;12.30;;
32319;SDS011;19080;51.750;5.888;2023-04-06T11:24:06;15.32;;;10.75;;
32319;SDS011;19080;51.750;5.888;2023-04-06T11:29:08;15.70;;;11.80;;
32319;SDS011;19080;51.750;5.888;2023-04-06T11:31:39;12.55;;;10.07;;
32319;SDS011;19080;51.750;5.888;2023-04-06T11:34:16;14.77;;;10.68;;
32319;SDS011;19080;51.750;5.888;2023-04-06T11:37:25;17.80;;;11.60;;
32319;SDS011;19080;51.750;5.888;2023-04-06T11:39:50;14.52;;;9.85;;
32319;SDS011;19080;51.750;5.888;2023-04-06T11:42:25;13.43;;;9.73;;
32319;SDS011;19080;51.750;5.888;2023-04-06T11:44:57;15.50;;;9.88;;
32319;SDS011;19080;51.750;5.888;2023-04-06T11:47:36;15.15;;;9.10;;
32319;SDS011;19080;51.750;5.888;2023-04-06T11:50:07;10.05;;;7.68;;
32319;SDS011;19080;51.750;5.888;2023-04-06T11:52:36;9.98;;;7.50;;
32319;SDS011;19080;51.750;5.888;2023-04-06T11:55:38;10.88;;;8.10;;
32319;SDS011;19080;51.750;5.888;2023-04-06T11:58:03;11.73;;;7.95;;
32319;SDS011;19080;51.750;5.888;2023-04-06T12:00:30;11.68;;;7.78;;
32319;SDS011;19080;51.750;5.888;2023-04-06T12:03:01;9.63;;;7.33;;
32319;SDS011;19080;51.750;5.888;2023-04-06T12:05:29;8.98;;;6.95;;
32319;SDS011;19080;51.750;5.888;2023-04-06T12:08:01;9.75;;;7.22;;
32319;SDS011;19080;51.750;5.888;2023-04-06T12:10:29;7.57;;;5.80;;
32319;SDS011;19080;51.750;5.888;2023-04-06T12:12:56;7.13;;;6.00;;
32319;SDS011;19080;51.750;5.888;2023-04-06T12:15:23;8.05;;;6.05;;
32319;SDS011;19080;51.750;5.888;2023-04-06T12:17:49;8.27;;;6.00;;
32319;SDS011;19080;51.750;5.888;2023-04-06T12:20:17;7.78;;;6.05;;
32319;SDS011;19080;51.750;5.888;2023-04-06T12:22:52;8.60;;;6.55;;
32319;SDS011;19080;51.750;5.888;2023-04-06T12:25:19;8.95;;;6.70;;
32319;SDS011;19080;51.750;5.888;2023-04-06T12:27:46;9.23;;;7.15;;
32319;SDS011;19080;51.750;5.888;2023-04-06T12:30:13;7.88;;;6.40;;
32319;SDS011;19080;51.750;5.888;2023-04-06T12:32:41;9.70;;;7.15;;
32319;SDS011;19080;51.750;5.888;2023-04-06T12:35:08;9.27;;;6.50;;
32319;SDS011;19080;51.750;5.888;2023-04-06T12:37:35;7.95;;;6.88;;
32319;SDS011;19080;51.750;5.888;2023-04-06T12:40:03;10.05;;;6.53;;
32319;SDS011;19080;51.750;5.888;2023-04-06T12:42:30;9.88;;;7.13;;
32319;SDS011;19080;51.750;5.888;2023-04-06T12:44:57;9.48;;;6.75;;
32319;SDS011;19080;51.750;5.888;2023-04-06T12:47:25;10.77;;;6.38;;
32319;SDS011;19080;51.750;5.888;2023-04-06T12:49:53;9.93;;;6.25;;
32319;SDS011;19080;51.750;5.888;2023-04-06T12:52:21;10.13;;;6.60;;
32319;SDS011;19080;51.750;5.888;2023-04-06T12:54:47;10.48;;;6.53;;
32319;SDS011;19080;51.750;5.888;2023-04-06T12:57:16;10.10;;;6.38;;
32319;SDS011;19080;51.750;5.888;2023-04-06T12:59:43;10.88;;;7.40;;
32319;SDS011;19080;51.750;5.888;2023-04-06T13:02:11;12.30;;;7.30;;
32319;SDS011;19080;51.750;5.888;2023-04-06T13:04:38;9.07;;;6.90;;
32319;SDS011;19080;51.750;5.888;2023-04-06T13:07:05;9.25;;;6.80;;
32319;SDS011;19080;51.750;5.888;2023-04-06T13:09:32;9.68;;;7.28;;
32319;SDS011;19080;51.750;5.888;2023-04-06T13:11:59;10.93;;;7.70;;
32319;SDS011;19080;51.750;5.888;2023-04-06T13:14:25;11.35;;;7.60;;
32319;SDS011;19080;51.750;5.888;2023-04-06T13:16:52;11.63;;;7.88;;
32319;SDS011;19080;51.750;5.888;2023-04-06T13:19:19;10.30;;;8.30;;
32319;SDS011;19080;51.750;5.888;2023-04-06T13:21:46;13.98;;;7.93;;
32319;SDS011;19080;51.750;5.888;2023-04-06T13:24:13;13.57;;;9.02;;
32319;SDS011;19080;51.750;5.888;2023-04-06T13:26:42;15.20;;;9.52;;
32319;SDS011;19080;51.750;5.888;2023-04-06T13:29:09;11.30;;;7.88;;
32319;SDS011;19080;51.750;5.888;2023-04-06T13:31:36;13.38;;;9.40;;
32319;SDS011;19080;51.750;5.888;2023-04-06T13:34:03;12.40;;;9.32;;
32319;SDS011;19080;51.750;5.888;2023-04-06T13:36:29;15.95;;;10.57;;
32319;SDS011;19080;51.750;5.888;2023-04-06T13:38:58;15.45;;;10.48;;
32319;SDS011;19080;51.750;5.888;2023-04-06T13:41:25;14.68;;;10.98;;
32319;SDS011;19080;51.750;5.888;2023-04-06T13:43:52;18.20;;;10.77;;
32319;SDS011;19080;51.750;5.888;2023-04-06T13:46:20;14.60;;;10.23;;
32319;SDS011;19080;51.750;5.888;2023-04-06T13:48:47;15.65;;;10.32;;
32319;SDS011;19080;51.750;5.888;2023-04-06T13:51:14;17.75;;;10.40;;
32319;SDS011;19080;51.750;5.888;2023-04-06T13:53:41;13.88;;;10.02;;
32319;SDS011;19080;51.750;5.888;2023-04-06T13:56:08;15.13;;;10.27;;
32319;SDS011;19080;51.750;5.888;2023-04-06T13:58:35;16.20;;;11.52;;
32319;SDS011;19080;51.750;5.888;2023-04-06T14:01:06;15.73;;;10.43;;
32319;SDS011;19080;51.750;5.888;2023-04-06T14:03:34;16.48;;;11.63;;
32319;SDS011;19080;51.750;5.888;2023-04-06T14:06:09;17.77;;;11.20;;
32319;SDS011;19080;51.750;5.888;2023-04-06T14:08:55;17.40;;;11.20;;
32319;SDS011;19080;51.750;5.888;2023-04-06T14:11:23;15.40;;;10.40;;
32319;SDS011;19080;51.750;5.888;2023-04-06T14:13:49;14.52;;;9.55;;
32319;SDS011;19080;51.750;5.888;2023-04-06T14:16:16;12.50;;;9.43;;
32319;SDS011;19080;51.750;5.888;2023-04-06T14:18:45;14.18;;;10.32;;
32319;SDS011;19080;51.750;5.888;2023-04-06T14:21:12;12.75;;;8.82;;
32319;SDS011;19080;51.750;5.888;2023-04-06T14:23:39;12.75;;;8.90;;
32319;SDS011;19080;51.750;5.888;2023-04-06T14:26:07;14.07;;;9.07;;
32319;SDS011;19080;51.750;5.888;2023-04-06T14:28:34;12.40;;;8.85;;
32319;SDS011;19080;51.750;5.888;2023-04-06T14:31:08;14.18;;;8.82;;
32319;SDS011;19080;51.750;5.888;2023-04-06T14:33:36;12.45;;;9.27;;
32319;SDS011;19080;51.750;5.888;2023-04-06T14:36:03;13.05;;;9.23;;
32319;SDS011;19080;51.750;5.888;2023-04-06T14:38:31;13.70;;;8.55;;
32319;SDS011;19080;51.750;5.888;2023-04-06T14:40:58;11.23;;;9.10;;
32319;SDS011;19080;51.750;5.888;2023-04-06T14:43:25;11.63;;;7.82;;
32319;SDS011;19080;51.750;5.888;2023-04-06T14:45:52;11.60;;;8.40;;
32319;SDS011;19080;51.750;5.888;2023-04-06T14:48:19;12.93;;;8.65;;
32319;SDS011;19080;51.750;5.888;2023-04-06T14:50:52;10.57;;;8.55;;
32319;SDS011;19080;51.750;5.888;2023-04-06T14:53:19;11.15;;;8.20;;
32319;SDS011;19080;51.750;5.888;2023-04-06T14:55:46;13.05;;;8.80;;
32319;SDS011;19080;51.750;5.888;2023-04-06T14:58:13;13.88;;;9.70;;
32319;SDS011;19080;51.750;5.888;2023-04-06T15:00:40;13.43;;;9.90;;
32319;SDS011;19080;51.750;5.888;2023-04-06T15:03:07;13.07;;;10.07;;
32319;SDS011;19080;51.750;5.888;2023-04-06T15:05:35;11.15;;;8.68;;
32319;SDS011;19080;51.750;5.888;2023-04-06T15:08:01;12.52;;;9.10;;
32319;SDS011;19080;51.750;5.888;2023-04-06T15:10:28;13.10;;;9.73;;